sensor_id;sensor_type;location;lat;lon;timestamp;P1;durP1;ratioP1;P2;durP2;ratioP2
11681;SDS011;5897;42.640;23.310;2024-03-08T00:00:59;12.95;;;11.50;;
11681;SDS011;5897;42.640;23.310;2024-03-08T00:07:17;13.48;;;11.52;;
11681;SDS011;5897;42.640;23.310;2024-03-08T00:09:53;13.32;;;11.77;;
11681;SDS011;5897;42.640;23.310;2024-03-08T00:16:12;11.98;;;10.68;;
11681;SDS011;5897;42.640;23.310;2024-03-08T00:18:44;12.00;;;10.63;;
11681;SDS011;5897;42.640;23.310;2024-03-08T00:21:54;10.60;;;9.50;;
11681;SDS011;5897;42.640;23.310;2024-03-08T00:24:37;10.30;;;9.00;;
11681;SDS011;5897;42.640;23.310;2024-03-08T00:27:19;8.80;;;7.90;;
11681;SDS011;5897;42.640;23.310;2024-03-08T00:30:01;8.77;;;7.88;;
11681;SDS011;5897;42.640;23.310;2024-03-08T00:43:28;7.35;;;6.55;;
11681;SDS011;5897;42.640;23.310;2024-03-08T00:45:07;7.40;;;6.57;;
11681;SDS011;5897;42.640;23.310;2024-03-08T00:48:05;7.28;;;6.57;;
11681;SDS011;5897;42.640;23.310;2024-03-08T00:54:09;6.57;;;5.97;;
11681;SDS011;5897;42.640;23.310;2024-03-08T00:56:35;6.65;;;5.80;;
11681;SDS011;5897;42.640;23.310;2024-03-08T00:59:16;7.43;;;6.40;;
11681;SDS011;5897;42.640;23.310;2024-03-08T01:05:04;5.35;;;4.80;;
11681;SDS011;5897;42.640;23.310;2024-03-08T01:07:32;5.30;;;4.80;;
11681;SDS011;5897;42.640;23.310;2024-03-08T01:13:16;3.50;;;3.20;;
11681;SDS011;5897;42.640;23.310;2024-03-08T01:18:42;3.60;;;3.00;;
11681;SDS011;5897;42.640;23.310;2024-03-08T01:21:12;3.13;;;2.78;;
11681;SDS011;5897;42.640;23.310;2024-03-08T01:23:42;3.95;;;3.13;;
11681;SDS011;5897;42.640;23.310;2024-03-08T01:26:09;2.90;;;2.70;;
11681;SDS011;5897;42.640;23.310;2024-03-08T01:28:36;3.35;;;3.03;;
11681;SDS011;5897;42.640;23.310;2024-03-08T01:32:22;3.22;;;2.92;;
11681;SDS011;5897;42.640;23.310;2024-03-08T01:34:34;3.00;;;2.80;;
11681;SDS011;5897;42.640;23.310;2024-03-08T01:40:05;3.17;;;2.88;;
11681;SDS011;5897;42.640;23.310;2024-03-08T01:43:27;3.17;;;2.78;;
11681;SDS011;5897;42.640;23.310;2024-03-08T01:45:57;3.13;;;2.55;;
11681;SDS011;5897;42.640;23.310;2024-03-08T02:05:16;3.22;;;2.67;;
11681;SDS011;5897;42.640;23.310;2024-03-08T02:11:01;2.95;;;2.72;;
11681;SDS011;5897;42.640;23.310;2024-03-08T02:13:56;2.70;;;2.50;;
11681;SDS011;5897;42.640;23.310;2024-03-08T02:19:38;3.20;;;2.50;;
11681;SDS011;5897;42.640;23.310;2024-03-08T02:22:38;2.70;;;2.50;;
11681;SDS011;5897;42.640;23.310;2024-03-08T02:25:28;2.40;;;2.20;;
11681;SDS011;5897;42.640;23.310;2024-03-08T02:28:27;2.15;;;1.95;;
11681;SDS011;5897;42.640;23.310;2024-03-08T02:30:54;2.17;;;1.90;;
11681;SDS011;5897;42.640;23.310;2024-03-08T02:36:59;2.15;;;2.05;;
11681;SDS011;5897;42.640;23.310;2024-03-08T02:40:10;2.80;;;2.25;;
11681;SDS011;5897;42.640;23.310;2024-03-08T02:43:05;3.28;;;2.33;;
11681;SDS011;5897;42.640;23.310;2024-03-08T02:49:27;2.38;;;2.17;;
11681;SDS011;5897;42.640;23.310;2024-03-08T02:52:02;2.20;;;2.00;;
11681;SDS011;5897;42.640;23.310;2024-03-08T02:54:47;2.40;;;2.20;;
11681;SDS011;5897;42.640;23.310;2024-03-08T02:57:23;2.55;;;2.30;;
11681;SDS011;5897;42.640;23.310;2024-03-08T03:00:07;2.28;;;2.08;;
11681;SDS011;5897;42.640;23.310;2024-03-08T03:03:25;2.78;;;2.40;;
11681;SDS011;5897;42.640;23.310;2024-03-08T03:06:21;2.30;;;2.15;;
11681;SDS011;5897;42.640;23.310;2024-03-08T03:09:25;4.22;;;2.70;;
11681;SDS011;5897;42.640;23.310;2024-03-08T03:11:52;2.58;;;2.38;;
11681;SDS011;5897;42.640;23.310;2024-03-08T03:14:31;2.58;;;2.38;;
11681;SDS011;5897;42.640;23.310;2024-03-08T03:17:01;1.95;;;1.85;;
11681;SDS011;5897;42.640;23.310;2024-03-08T03:19:53;1.38;;;1.27;;
11681;SDS011;5897;42.640;23.310;2024-03-08T03:22:20;1.30;;;1.20;;
11681;SDS011;5897;42.640;23.310;2024-03-08T03:24:53;1.38;;;1.27;;
11681;SDS011;5897;42.640;23.310;2024-03-08T03:30:34;1.65;;;1.20;;
11681;SDS011;5897;42.640;23.310;2024-03-08T03:33:30;1.40;;;1.30;;
11681;SDS011;5897;42.640;23.310;2024-03-08T03:37:52;1.42;;;1.33;;
11681;SDS011;5897;42.640;23.310;2024-03-08T03:39:32;1.45;;;1.35;;
11681;SDS011;5897;42.640;23.310;2024-03-08T03:42:15;2.33;;;1.52;;
11681;SDS011;5897;42.640;23.310;2024-03-08T03:44:53;1.60;;;1.50;;
11681;SDS011;5897;42.640;23.310;2024-03-08T03:47:31;1.60;;;1.50;;
11681;SDS011;5897;42.640;23.310;2024-03-08T03:50:12;1.60;;;1.50;;
11681;SDS011;5897;42.640;23.310;2024-03-08T03:52:53;1.50;;;1.30;;
11681;SDS011;5897;42.640;23.310;2024-03-08T03:55:25;1.48;;;1.38;;
11681;SDS011;5897;42.640;23.310;2024-03-08T04:01:25;2.78;;;2.10;;
11681;SDS011;5897;42.640;23.310;2024-03-08T04:04:08;2.72;;;2.05;;
11681;SDS011;5897;42.640;23.310;2024-03-08T04:06:49;1.92;;;1.75;;
11681;SDS011;5897;42.640;23.310;2024-03-08T04:15:40;1.90;;;1.70;;
11681;SDS011;5897;42.640;23.310;2024-03-08T04:18:09;1.60;;;1.50;;
11681;SDS011;5897;42.640;23.310;2024-03-08T04:20:37;1.60;;;1.50;;
11681;SDS011;5897;42.640;23.310;2024-03-08T04:23:04;2.33;;;1.17;;
11681;SDS011;5897;42.640;23.310;2024-03-08T04:25:35;2.35;;;1.15;;
11681;SDS011;5897;42.640;23.310;2024-03-08T04:31:30;1.30;;;1.20;;
11681;SDS011;5897;42.640;23.310;2024-03-08T04:43:41;1.10;;;1.10;;
11681;SDS011;5897;42.640;23.310;2024-03-08T04:46:23;1.50;;;1.40;;
11681;SDS011;5897;42.640;23.310;2024-03-08T04:49:06;1.73;;;1.52;;
11681;SDS011;5897;42.640;23.310;2024-03-08T04:52:07;1.40;;;1.30;;
11681;SDS011;5897;42.640;23.310;2024-03-08T04:54:38;1.40;;;1.30;;
11681;SDS011;5897;42.640;23.310;2024-03-08T04:57:19;1.60;;;1.50;;
11681;SDS011;5897;42.640;23.310;2024-03-08T04:59:52;2.08;;;1.70;;
11681;SDS011;5897;42.640;23.310;2024-03-08T05:05:39;1.73;;;1.63;;
11681;SDS011;5897;42.640;23.310;2024-03-08T05:08:05;1.50;;;1.40;;
11681;SDS011;5897;42.640;23.310;2024-03-08T05:10:35;1.85;;;1.75;;
11681;SDS011;5897;42.640;23.310;2024-03-08T05:13:10;2.20;;;2.00;;
11681;SDS011;5897;42.640;23.310;2024-03-08T05:16:04;2.35;;;2.00;;
11681;SDS011;5897;42.640;23.310;2024-03-08T05:18:56;2.40;;;2.20;;
11681;SDS011;5897;42.640;23.310;2024-03-08T05:21:44;2.95;;;2.20;;
11681;SDS011;5897;42.640;23.310;2024-03-08T05:24:48;2.72;;;2.53;;
11681;SDS011;5897;42.640;23.310;2024-03-08T05:27:50;2.40;;;2.17;;
11681;SDS011;5897;42.640;23.310;2024-03-08T05:30:43;2.40;;;2.20;;
11681;SDS011;5897;42.640;23.310;2024-03-08T05:36:48;2.53;;;2.33;;
11681;SDS011;5897;42.640;23.310;2024-03-08T05:39:38;2.75;;;2.55;;
11681;SDS011;5897;42.640;23.310;2024-03-08T05:42:27;3.00;;;2.50;;
11681;SDS011;5897;42.640;23.310;2024-03-08T05:45:14;2.65;;;2.45;;
11681;SDS011;5897;42.640;23.310;2024-03-08T05:47:47;2.70;;;2.50;;
11681;SDS011;5897;42.640;23.310;2024-03-08T05:50:40;2.78;;;2.40;;
11681;SDS011;5897;42.640;23.310;2024-03-08T05:53:24;2.60;;;2.40;;
11681;SDS011;5897;42.640;23.310;2024-03-08T05:56:06;3.00;;;2.67;;
11681;SDS011;5897;42.640;23.310;2024-03-08T05:58:57;2.70;;;2.50;;
11681;SDS011;5897;42.640;23.310;2024-03-08T06:01:48;3.20;;;2.90;;
11681;SDS011;5897;42.640;23.310;2024-03-08T06:04:35;4.78;;;2.58;;
11681;SDS011;5897;42.640;23.310;2024-03-08T06:07:26;4.47;;;2.97;;
11681;SDS011;5897;42.640;23.310;2024-03-08T06:10:05;3.28;;;2.78;;
11681;SDS011;5897;42.640;23.310;2024-03-08T06:13:11;5.20;;;3.60;;
11681;SDS011;5897;42.640;23.310;2024-03-08T06:15:38;4.85;;;3.95;;
11681;SDS011;5897;42.640;23.310;2024-03-08T06:18:13;4.22;;;3.83;;
11681;SDS011;5897;42.640;23.310;2024-03-08T06:21:11;3.97;;;3.67;;
11681;SDS011;5897;42.640;23.310;2024-03-08T06:24:01;3.90;;;3.60;;
11681;SDS011;5897;42.640;23.310;2024-03-08T06:26:44;4.00;;;3.60;;
11681;SDS011;5897;42.640;23.310;2024-03-08T06:29:20;4.05;;;3.65;;
11681;SDS011;5897;42.640;23.310;2024-03-08T06:31:48;3.22;;;2.92;;
11681;SDS011;5897;42.640;23.310;2024-03-08T06:34:32;4.22;;;3.80;;
11681;SDS011;5897;42.640;23.310;2024-03-08T06:37:18;6.00;;;5.13;;
11681;SDS011;5897;42.640;23.310;2024-03-08T06:46:29;8.23;;;5.72;;
11681;SDS011;5897;42.640;23.310;2024-03-08T06:50:38;7.38;;;5.97;;
11681;SDS011;5897;42.640;23.310;2024-03-08T06:55:46;8.18;;;6.25;;
11681;SDS011;5897;42.640;23.310;2024-03-08T06:58:24;6.97;;;5.65;;
11681;SDS011;5897;42.640;23.310;2024-03-08T07:00:53;7.78;;;6.05;;
11681;SDS011;5897;42.640;23.310;2024-03-08T07:13:41;7.38;;;6.45;;
11681;SDS011;5897;42.640;23.310;2024-03-08T07:16:31;7.13;;;6.22;;
11681;SDS011;5897;42.640;23.310;2024-03-08T07:19:22;7.70;;;6.90;;
11681;SDS011;5897;42.640;23.310;2024-03-08T07:22:47;8.27;;;6.50;;
11681;SDS011;5897;42.640;23.310;2024-03-08T07:25:15;6.50;;;5.85;;
11681;SDS011;5897;42.640;23.310;2024-03-08T07:28:15;6.22;;;4.93;;
11681;SDS011;5897;42.640;23.310;2024-03-08T07:30:56;7.35;;;5.80;;
11681;SDS011;5897;42.640;23.310;2024-03-08T07:33:46;7.63;;;5.53;;
11681;SDS011;5897;42.640;23.310;2024-03-08T07:36:27;6.50;;;5.70;;
11681;SDS011;5897;42.640;23.310;2024-03-08T07:38:57;5.80;;;5.00;;
11681;SDS011;5897;42.640;23.310;2024-03-08T07:41:40;7.10;;;5.03;;
11681;SDS011;5897;42.640;23.310;2024-03-08T07:51:02;7.18;;;4.85;;
11681;SDS011;5897;42.640;23.310;2024-03-08T07:54:21;7.18;;;4.32;;
11681;SDS011;5897;42.640;23.310;2024-03-08T07:56:59;5.57;;;4.47;;
11681;SDS011;5897;42.640;23.310;2024-03-08T07:59:34;4.57;;;4.18;;
11681;SDS011;5897;42.640;23.310;2024-03-08T08:02:38;6.40;;;4.43;;
11681;SDS011;5897;42.640;23.310;2024-03-08T08:05:18;5.20;;;4.70;;
11681;SDS011;5897;42.640;23.310;2024-03-08T08:07:59;6.65;;;5.32;;
11681;SDS011;5897;42.640;23.310;2024-03-08T08:10:31;6.35;;;5.57;;
11681;SDS011;5897;42.640;23.310;2024-03-08T08:13:18;6.78;;;5.50;;
11681;SDS011;5897;42.640;23.310;2024-03-08T08:15:45;7.05;;;6.03;;
11681;SDS011;5897;42.640;23.310;2024-03-08T08:18:36;6.20;;;5.60;;
11681;SDS011;5897;42.640;23.310;2024-03-08T08:24:29;6.13;;;5.43;;
11681;SDS011;5897;42.640;23.310;2024-03-08T08:27:13;6.45;;;5.38;;
11681;SDS011;5897;42.640;23.310;2024-03-08T08:33:43;6.97;;;6.10;;
11681;SDS011;5897;42.640;23.310;2024-03-08T08:36:13;9.05;;;6.28;;
11681;SDS011;5897;42.640;23.310;2024-03-08T08:38:59;6.85;;;6.15;;
11681;SDS011;5897;42.640;23.310;2024-03-08T08:44:44;6.05;;;5.45;;
11681;SDS011;5897;42.640;23.310;2024-03-08T08:47:28;7.50;;;6.15;;
11681;SDS011;5897;42.640;23.310;2024-03-08T08:52:47;6.30;;;5.70;;
11681;SDS011;5897;42.640;23.310;2024-03-08T08:55:28;7.53;;;6.00;;
11681;SDS011;5897;42.640;23.310;2024-03-08T08:58:22;7.25;;;5.53;;
11681;SDS011;5897;42.640;23.310;2024-03-08T09:04:07;7.68;;;5.45;;
11681;SDS011;5897;42.640;23.310;2024-03-08T09:06:33;6.72;;;5.68;;
11681;SDS011;5897;42.640;23.310;2024-03-08T09:09:25;6.15;;;5.55;;
11681;SDS011;5897;42.640;23.310;2024-03-08T09:15:07;7.10;;;5.22;;
11681;SDS011;5897;42.640;23.310;2024-03-08T09:18:02;9.15;;;5.95;;
11681;SDS011;5897;42.640;23.310;2024-03-08T09:23:40;7.57;;;5.10;;
11681;SDS011;5897;42.640;23.310;2024-03-08T09:26:33;6.47;;;4.80;;
11681;SDS011;5897;42.640;23.310;2024-03-08T09:38:32;3.90;;;3.60;;
11681;SDS011;5897;42.640;23.310;2024-03-08T09:46:59;5.72;;;4.25;;
11681;SDS011;5897;42.640;23.310;2024-03-08T09:50:01;4.32;;;3.90;;
11681;SDS011;5897;42.640;23.310;2024-03-08T09:52:30;6.95;;;3.55;;
11681;SDS011;5897;42.640;23.310;2024-03-08T09:58:16;2.42;;;2.22;;
11681;SDS011;5897;42.640;23.310;2024-03-08T10:01:33;2.78;;;2.58;;
11681;SDS011;5897;42.640;23.310;2024-03-08T10:07:19;4.95;;;2.97;;
11681;SDS011;5897;42.640;23.310;2024-03-08T10:13:23;5.68;;;3.30;;
11681;SDS011;5897;42.640;23.310;2024-03-08T10:16:10;3.70;;;2.95;;
11681;SDS011;5897;42.640;23.310;2024-03-08T10:22:52;4.90;;;3.75;;
11681;SDS011;5897;42.640;23.310;2024-03-08T10:25:20;4.47;;;2.63;;
11681;SDS011;5897;42.640;23.310;2024-03-08T10:31:14;4.35;;;2.58;;
11681;SDS011;5897;42.640;23.310;2024-03-08T10:34:15;4.57;;;2.80;;
11681;SDS011;5897;42.640;23.310;2024-03-08T10:37:10;3.30;;;2.67;;
11681;SDS011;5897;42.640;23.310;2024-03-08T10:40:10;3.90;;;2.70;;
11681;SDS011;5897;42.640;23.310;2024-03-08T10:42:48;2.90;;;2.60;;
11681;SDS011;5897;42.640;23.310;2024-03-08T10:45:31;7.32;;;5.13;;
11681;SDS011;5897;42.640;23.310;2024-03-08T10:48:10;3.28;;;2.97;;
11681;SDS011;5897;42.640;23.310;2024-03-08T10:50:51;3.95;;;2.78;;
11681;SDS011;5897;42.640;23.310;2024-03-08T10:56:51;5.00;;;2.42;;
11681;SDS011;5897;42.640;23.310;2024-03-08T10:59:38;2.42;;;2.22;;
11681;SDS011;5897;42.640;23.310;2024-03-08T11:02:43;2.75;;;2.17;;
11681;SDS011;5897;42.640;23.310;2024-03-08T11:05:53;6.88;;;2.40;;
11681;SDS011;5897;42.640;23.310;2024-03-08T11:08:33;2.88;;;2.22;;
11681;SDS011;5897;42.640;23.310;2024-03-08T11:11:44;3.25;;;2.00;;
11681;SDS011;5897;42.640;23.310;2024-03-08T11:20:41;7.72;;;2.65;;
11681;SDS011;5897;42.640;23.310;2024-03-08T11:23:23;5.38;;;3.30;;
11681;SDS011;5897;42.640;23.310;2024-03-08T11:25:59;3.35;;;2.45;;
11681;SDS011;5897;42.640;23.310;2024-03-08T11:35:29;4.53;;;2.20;;
11681;SDS011;5897;42.640;23.310;2024-03-08T11:38:15;2.20;;;1.80;;
11681;SDS011;5897;42.640;23.310;2024-03-08T11:40:45;2.60;;;2.13;;
11681;SDS011;5897;42.640;23.310;2024-03-08T11:43:23;2.85;;;2.30;;
11681;SDS011;5897;42.640;23.310;2024-03-08T11:52:09;3.78;;;1.92;;
11681;SDS011;5897;42.640;23.310;2024-03-08T11:58:01;2.95;;;1.95;;
11681;SDS011;5897;42.640;23.310;2024-03-08T12:00:42;4.82;;;2.10;;
11681;SDS011;5897;42.640;23.310;2024-03-08T12:03:29;2.03;;;1.67;;
11681;SDS011;5897;42.640;23.310;2024-03-08T12:06:19;2.78;;;1.98;;
11681;SDS011;5897;42.640;23.310;2024-03-08T12:08:53;6.72;;;2.20;;
11681;SDS011;5897;42.640;23.310;2024-03-08T12:14:49;3.08;;;1.85;;
11681;SDS011;5897;42.640;23.310;2024-03-08T12:17:17;2.70;;;2.20;;
11681;SDS011;5897;42.640;23.310;2024-03-08T12:20:11;2.40;;;1.88;;
11681;SDS011;5897;42.640;23.310;2024-03-08T12:22:51;2.10;;;1.90;;
11681;SDS011;5897;42.640;23.310;2024-03-08T12:25:37;2.40;;;2.15;;
11681;SDS011;5897;42.640;23.310;2024-03-08T12:28:19;9.50;;;3.40;;
11681;SDS011;5897;42.640;23.310;2024-03-08T12:31:11;4.43;;;2.58;;
11681;SDS011;5897;42.640;23.310;2024-03-08T12:34:04;4.95;;;2.35;;
11681;SDS011;5897;42.640;23.310;2024-03-08T12:39:55;2.53;;;2.03;;
11681;SDS011;5897;42.640;23.310;2024-03-08T12:42:32;2.53;;;2.00;;
11681;SDS011;5897;42.640;23.310;2024-03-08T12:45:31;6.20;;;2.30;;
11681;SDS011;5897;42.640;23.310;2024-03-08T12:48:33;6.25;;;2.60;;
11681;SDS011;5897;42.640;23.310;2024-03-08T12:51:05;2.08;;;1.70;;
11681;SDS011;5897;42.640;23.310;2024-03-08T12:53:48;1.58;;;1.30;;
11681;SDS011;5897;42.640;23.310;2024-03-08T12:56:28;6.85;;;4.32;;
11681;SDS011;5897;42.640;23.310;2024-03-08T12:59:12;3.70;;;2.58;;
11681;SDS011;5897;42.640;23.310;2024-03-08T13:01:56;3.50;;;2.13;;
11681;SDS011;5897;42.640;23.310;2024-03-08T13:07:31;2.28;;;1.58;;
11681;SDS011;5897;42.640;23.310;2024-03-08T13:10:56;4.28;;;1.60;;
11681;SDS011;5897;42.640;23.310;2024-03-08T13:13:13;4.57;;;1.90;;
11681;SDS011;5897;42.640;23.310;2024-03-08T13:16:00;4.65;;;2.22;;
11681;SDS011;5897;42.640;23.310;2024-03-08T13:18:54;3.85;;;1.88;;
11681;SDS011;5897;42.640;23.310;2024-03-08T13:21:44;2.67;;;2.47;;
11681;SDS011;5897;42.640;23.310;2024-03-08T13:24:21;3.88;;;2.70;;
11681;SDS011;5897;42.640;23.310;2024-03-08T13:27:08;3.30;;;1.90;;
11681;SDS011;5897;42.640;23.310;2024-03-08T13:30:22;2.17;;;1.60;;
11681;SDS011;5897;42.640;23.310;2024-03-08T13:33:05;6.03;;;2.10;;
11681;SDS011;5897;42.640;23.310;2024-03-08T13:35:37;22.55;;;20.20;;
11681;SDS011;5897;42.640;23.310;2024-03-08T13:44:09;4.43;;;1.75;;
11681;SDS011;5897;42.640;23.310;2024-03-08T13:46:52;1.85;;;1.48;;
11681;SDS011;5897;42.640;23.310;2024-03-08T13:49:33;1.63;;;1.50;;
11681;SDS011;5897;42.640;23.310;2024-03-08T13:52:32;1.92;;;1.52;;
11681;SDS011;5897;42.640;23.310;2024-03-08T13:55:08;3.85;;;2.00;;
11681;SDS011;5897;42.640;23.310;2024-03-08T13:57:55;9.38;;;7.80;;
11681;SDS011;5897;42.640;23.310;2024-03-08T14:00:27;3.75;;;3.22;;
11681;SDS011;5897;42.640;23.310;2024-03-08T14:03:16;2.20;;;2.10;;
11681;SDS011;5897;42.640;23.310;2024-03-08T14:05:58;2.08;;;1.52;;
11681;SDS011;5897;42.640;23.310;2024-03-08T14:08:35;4.70;;;2.40;;
11681;SDS011;5897;42.640;23.310;2024-03-08T14:11:05;3.75;;;2.53;;
11681;SDS011;5897;42.640;23.310;2024-03-08T14:14:05;5.93;;;1.90;;
11681;SDS011;5897;42.640;23.310;2024-03-08T14:17:31;2.72;;;1.90;;
11681;SDS011;5897;42.640;23.310;2024-03-08T14:20:20;4.72;;;1.90;;
11681;SDS011;5897;42.640;23.310;2024-03-08T14:25:59;3.40;;;2.00;;
11681;SDS011;5897;42.640;23.310;2024-03-08T14:28:29;5.93;;;1.90;;
11681;SDS011;5897;42.640;23.310;2024-03-08T14:31:23;2.97;;;2.10;;
11681;SDS011;5897;42.640;23.310;2024-03-08T14:34:04;3.55;;;2.10;;
11681;SDS011;5897;42.640;23.310;2024-03-08T14:36:45;8.15;;;2.03;;
11681;SDS011;5897;42.640;23.310;2024-03-08T14:48:14;4.65;;;1.92;;
11681;SDS011;5897;42.640;23.310;2024-03-08T14:51:00;2.92;;;2.25;;
11681;SDS011;5897;42.640;23.310;2024-03-08T14:53:44;2.90;;;2.05;;
11681;SDS011;5897;42.640;23.310;2024-03-08T14:56:25;2.60;;;2.40;;
11681;SDS011;5897;42.640;23.310;2024-03-08T14:59:15;4.18;;;2.55;;
11681;SDS011;5897;42.640;23.310;2024-03-08T15:01:44;4.45;;;2.47;;
11681;SDS011;5897;42.640;23.310;2024-03-08T15:04:19;4.40;;;2.20;;
11681;SDS011;5897;42.640;23.310;2024-03-08T15:06:46;3.53;;;2.08;;
11681;SDS011;5897;42.640;23.310;2024-03-08T15:09:33;4.57;;;2.42;;
11681;SDS011;5897;42.640;23.310;2024-03-08T15:15:15;4.30;;;2.58;;
11681;SDS011;5897;42.640;23.310;2024-03-08T15:17:58;4.32;;;2.75;;
11681;SDS011;5897;42.640;23.310;2024-03-08T15:20:50;8.05;;;2.78;;
11681;SDS011;5897;42.640;23.310;2024-03-08T15:23:18;3.08;;;2.67;;
11681;SDS011;5897;42.640;23.310;2024-03-08T15:26:00;3.97;;;2.53;;
11681;SDS011;5897;42.640;23.310;2024-03-08T15:29:10;3.45;;;2.40;;
11681;SDS011;5897;42.640;23.310;2024-03-08T15:31:41;4.55;;;2.60;;
11681;SDS011;5897;42.640;23.310;2024-03-08T15:34:19;4.78;;;2.20;;
11681;SDS011;5897;42.640;23.310;2024-03-08T15:36:48;9.27;;;2.53;;
11681;SDS011;5897;42.640;23.310;2024-03-08T15:39:31;3.38;;;2.40;;
11681;SDS011;5897;42.640;23.310;2024-03-08T15:42:11;4.72;;;2.50;;
11681;SDS011;5897;42.640;23.310;2024-03-08T15:45:23;6.50;;;2.80;;
11681;SDS011;5897;42.640;23.310;2024-03-08T15:48:08;4.20;;;3.20;;
11681;SDS011;5897;42.640;23.310;2024-03-08T15:50:48;3.85;;;3.00;;
11681;SDS011;5897;42.640;23.310;2024-03-08T15:53:24;6.38;;;3.10;;
11681;SDS011;5897;42.640;23.310;2024-03-08T15:56:38;5.68;;;3.40;;
11681;SDS011;5897;42.640;23.310;2024-03-08T15:59:18;6.03;;;2.80;;
11681;SDS011;5897;42.640;23.310;2024-03-08T16:02:03;3.67;;;2.95;;
11681;SDS011;5897;42.640;23.310;2024-03-08T16:04:59;4.45;;;2.85;;
11681;SDS011;5897;42.640;23.310;2024-03-08T16:08:03;3.65;;;2.60;;
11681;SDS011;5897;42.640;23.310;2024-03-08T16:14:29;6.50;;;3.00;;
11681;SDS011;5897;42.640;23.310;2024-03-08T16:19:49;3.28;;;2.90;;
11681;SDS011;5897;42.640;23.310;2024-03-08T16:22:40;5.55;;;3.20;;
11681;SDS011;5897;42.640;23.310;2024-03-08T16:25:13;5.25;;;3.53;;
11681;SDS011;5897;42.640;23.310;2024-03-08T16:30:43;9.05;;;3.80;;
11681;SDS011;5897;42.640;23.310;2024-03-08T16:36:46;6.85;;;3.13;;
11681;SDS011;5897;42.640;23.310;2024-03-08T16:39:38;9.20;;;3.20;;
11681;SDS011;5897;42.640;23.310;2024-03-08T16:42:07;3.90;;;3.42;;
11681;SDS011;5897;42.640;23.310;2024-03-08T16:47:49;6.95;;;3.60;;
11681;SDS011;5897;42.640;23.310;2024-03-08T16:50:32;4.07;;;3.42;;
11681;SDS011;5897;42.640;23.310;2024-03-08T16:53:18;6.45;;;3.92;;
11681;SDS011;5897;42.640;23.310;2024-03-08T16:56:49;5.88;;;3.70;;
11681;SDS011;5897;42.640;23.310;2024-03-08T16:59:17;5.68;;;3.90;;
11681;SDS011;5897;42.640;23.310;2024-03-08T17:04:57;4.72;;;3.70;;
11681;SDS011;5897;42.640;23.310;2024-03-08T17:07:46;6.68;;;4.20;;
11681;SDS011;5897;42.640;23.310;2024-03-08T17:13:18;7.18;;;5.00;;
11681;SDS011;5897;42.640;23.310;2024-03-08T17:16:10;6.00;;;4.68;;
11681;SDS011;5897;42.640;23.310;2024-03-08T17:19:05;6.57;;;4.55;;
11681;SDS011;5897;42.640;23.310;2024-03-08T17:21:33;10.60;;;4.78;;
11681;SDS011;5897;42.640;23.310;2024-03-08T17:26:59;8.05;;;4.80;;
11681;SDS011;5897;42.640;23.310;2024-03-08T17:29:37;6.50;;;4.50;;
11681;SDS011;5897;42.640;23.310;2024-03-08T17:32:51;7.18;;;4.28;;
11681;SDS011;5897;42.640;23.310;2024-03-08T17:35:59;7.70;;;4.97;;
11681;SDS011;5897;42.640;23.310;2024-03-08T17:38:39;6.35;;;4.95;;
11681;SDS011;5897;42.640;23.310;2024-03-08T17:41:24;7.75;;;4.75;;
11681;SDS011;5897;42.640;23.310;2024-03-08T17:49:55;7.03;;;4.70;;
11681;SDS011;5897;42.640;23.310;2024-03-08T17:52:27;10.27;;;4.60;;
11681;SDS011;5897;42.640;23.310;2024-03-08T17:55:04;8.55;;;4.90;;
11681;SDS011;5897;42.640;23.310;2024-03-08T17:57:36;7.95;;;5.60;;
11681;SDS011;5897;42.640;23.310;2024-03-08T18:03:25;8.85;;;5.57;;
11681;SDS011;5897;42.640;23.310;2024-03-08T18:06:10;9.27;;;7.10;;
11681;SDS011;5897;42.640;23.310;2024-03-08T18:09:06;6.47;;;5.40;;
11681;SDS011;5897;42.640;23.310;2024-03-08T18:11:47;5.88;;;4.95;;
11681;SDS011;5897;42.640;23.310;2024-03-08T18:17:24;7.82;;;7.03;;
11681;SDS011;5897;42.640;23.310;2024-03-08T18:19:59;12.15;;;6.55;;
11681;SDS011;5897;42.640;23.310;2024-03-08T18:22:31;8.60;;;6.63;;
11681;SDS011;5897;42.640;23.310;2024-03-08T18:25:15;9.13;;;7.15;;
11681;SDS011;5897;42.640;23.310;2024-03-08T18:28:10;14.45;;;9.30;;
11681;SDS011;5897;42.640;23.310;2024-03-08T18:30:59;16.73;;;12.90;;
11681;SDS011;5897;42.640;23.310;2024-03-08T18:34:28;20.42;;;14.32;;
11681;SDS011;5897;42.640;23.310;2024-03-08T18:36:16;20.42;;;15.93;;
11681;SDS011;5897;42.640;23.310;2024-03-08T18:38:58;23.80;;;16.77;;
11681;SDS011;5897;42.640;23.310;2024-03-08T18:42:02;23.23;;;18.48;;
11681;SDS011;5897;42.640;23.310;2024-03-08T18:44:49;10.88;;;9.73;;
11681;SDS011;5897;42.640;23.310;2024-03-08T18:47:25;9.80;;;6.35;;
11681;SDS011;5897;42.640;23.310;2024-03-08T18:50:21;6.80;;;5.95;;
11681;SDS011;5897;42.640;23.310;2024-03-08T18:53:10;8.10;;;7.22;;
11681;SDS011;5897;42.640;23.310;2024-03-08T18:55:37;6.95;;;5.53;;
11681;SDS011;5897;42.640;23.310;2024-03-08T19:01:01;6.57;;;4.80;;
11681;SDS011;5897;42.640;23.310;2024-03-08T19:03:37;6.18;;;5.32;;
11681;SDS011;5897;42.640;23.310;2024-03-08T19:06:53;7.50;;;5.20;;
11681;SDS011;5897;42.640;23.310;2024-03-08T19:09:25;8.73;;;5.90;;
11681;SDS011;5897;42.640;23.310;2024-03-08T19:12:14;9.93;;;5.90;;
11681;SDS011;5897;42.640;23.310;2024-03-08T19:14:41;9.55;;;6.15;;
11681;SDS011;5897;42.640;23.310;2024-03-08T19:20:00;7.82;;;6.13;;
11681;SDS011;5897;42.640;23.310;2024-03-08T19:22:53;12.48;;;7.85;;
11681;SDS011;5897;42.640;23.310;2024-03-08T19:25:54;11.65;;;6.70;;
11681;SDS011;5897;42.640;23.310;2024-03-08T19:31:50;13.38;;;8.85;;
11681;SDS011;5897;42.640;23.310;2024-03-08T19:34:30;10.48;;;8.05;;
11681;SDS011;5897;42.640;23.310;2024-03-08T19:37:22;11.52;;;8.43;;
11681;SDS011;5897;42.640;23.310;2024-03-08T19:43:09;10.50;;;8.07;;
11681;SDS011;5897;42.640;23.310;2024-03-08T19:49:22;12.10;;;10.20;;
11681;SDS011;5897;42.640;23.310;2024-03-08T19:52:08;13.18;;;11.30;;
11681;SDS011;5897;42.640;23.310;2024-03-08T20:01:31;12.25;;;8.70;;
11681;SDS011;5897;42.640;23.310;2024-03-08T20:04:32;12.73;;;9.02;;
11681;SDS011;5897;42.640;23.310;2024-03-08T20:10:15;12.40;;;8.65;;
11681;SDS011;5897;42.640;23.310;2024-03-08T20:13:26;15.93;;;9.02;;
11681;SDS011;5897;42.640;23.310;2024-03-08T20:16:21;13.07;;;9.32;;
11681;SDS011;5897;42.640;23.310;2024-03-08T20:19:13;10.90;;;9.25;;
11681;SDS011;5897;42.640;23.310;2024-03-08T20:22:27;12.57;;;8.95;;
11681;SDS011;5897;42.640;23.310;2024-03-08T20:31:33;10.43;;;8.93;;
11681;SDS011;5897;42.640;23.310;2024-03-08T20:34:00;10.93;;;8.77;;
11681;SDS011;5897;42.640;23.310;2024-03-08T20:36:27;10.27;;;8.73;;
11681;SDS011;5897;42.640;23.310;2024-03-08T20:38:55;14.43;;;8.85;;
11681;SDS011;5897;42.640;23.310;2024-03-08T20:41:24;12.00;;;8.57;;
11681;SDS011;5897;42.640;23.310;2024-03-08T20:43:53;10.10;;;8.45;;
11681;SDS011;5897;42.640;23.310;2024-03-08T20:46:20;9.63;;;7.65;;
11681;SDS011;5897;42.640;23.310;2024-03-08T20:48:50;20.80;;;15.65;;
11681;SDS011;5897;42.640;23.310;2024-03-08T20:51:18;20.10;;;15.88;;
11681;SDS011;5897;42.640;23.310;2024-03-08T20:53:45;24.10;;;14.10;;
11681;SDS011;5897;42.640;23.310;2024-03-08T20:56:14;19.40;;;13.95;;
11681;SDS011;5897;42.640;23.310;2024-03-08T20:58:43;18.65;;;13.68;;
11681;SDS011;5897;42.640;23.310;2024-03-08T21:01:12;18.80;;;14.82;;
11681;SDS011;5897;42.640;23.310;2024-03-08T21:03:39;20.13;;;15.05;;
11681;SDS011;5897;42.640;23.310;2024-03-08T21:06:07;28.35;;;17.67;;
11681;SDS011;5897;42.640;23.310;2024-03-08T21:08:34;30.17;;;19.98;;
11681;SDS011;5897;42.640;23.310;2024-03-08T21:11:03;27.17;;;18.58;;
11681;SDS011;5897;42.640;23.310;2024-03-08T21:13:34;29.48;;;20.25;;
11681;SDS011;5897;42.640;23.310;2024-03-08T21:16:01;25.95;;;18.45;;
11681;SDS011;5897;42.640;23.310;2024-03-08T21:18:31;30.08;;;19.80;;
11681;SDS011;5897;42.640;23.310;2024-03-08T21:20:58;27.75;;;17.98;;